Time;durP1;ratioP1;P1;durP2;ratioP2;P2;SDS_P1;SDS_P2;PMS_P1;PMS_P2;Temp;Humidity;BMP_temperature;BMP_pressure;BME280_temperature;BME280_humidity;BME280_pressure;Samples;Min_cycle;Max_cycle;Signal;HPM_P1;HPM_P2
2021/05/01 00:01:33;;;;;;;45.97;35.90;;;10.80;99.90;;;;;;5072207;28;20464;-73
2021/05/01 00:03:59;;;;;;;46.83;34.15;;;11.00;99.90;;;;;;5072067;28;20443;-73
2021/05/01 00:06:24;;;;;;;49.85;36.65;;;11.00;99.90;;;;;;5071905;28;20059;-74
2021/05/01 00:08:50;;;;;;;50.42;37.58;;;10.90;99.90;;;;;;5070881;28;20032;-74
2021/05/01 00:11:18;;;;;;;48.15;36.88;;;10.90;99.90;;;;;;5070762;28;20025;-73
2021/05/01 00:13:44;;;;;;;54.60;39.15;;;10.50;99.90;;;;;;5054003;28;20028;-73
2021/05/01 00:16:11;;;;;;;53.80;38.28;;;10.40;99.90;;;;;;5071795;28;20104;-73
2021/05/01 00:18:37;;;;;;;56.17;40.40;;;10.60;99.90;;;;;;5071686;28;20469;-73
2021/05/01 00:21:03;;;;;;;56.80;40.00;;;10.50;99.90;;;;;;5071048;28;20020;-73
2021/05/01 00:23:29;;;;;;;59.85;40.00;;;10.50;99.90;;;;;;5071935;28;20402;-73
2021/05/01 00:25:55;;;;;;;57.35;39.35;;;10.60;99.90;;;;;;5071710;28;20097;-73
2021/05/01 00:28:21;;;;;;;52.55;38.35;;;10.60;99.90;;;;;;5070512;28;20032;-74
2021/05/01 00:30:47;;;;;;;48.55;36.72;;;10.70;99.90;;;;;;5071706;28;20020;-74
2021/05/01 00:33:12;;;;;;;60.13;40.70;;;10.50;99.90;;;;;;5072031;28;20161;-73
2021/05/01 00:35:38;;;;;;;56.42;40.80;;;10.20;99.90;;;;;;5071529;28;20078;-73
2021/05/01 00:38:04;;;;;;;51.05;37.35;;;10.20;99.90;;;;;;5070514;28;20032;-74
2021/05/01 00:40:30;;;;;;;59.33;40.05;;;10.20;99.90;;;;;;5071739;28;20020;-73
2021/05/01 00:42:57;;;;;;;54.33;40.33;;;10.30;99.90;;;;;;5070499;28;20025;-73
2021/05/01 00:45:23;;;;;;;56.20;39.47;;;10.30;99.90;;;;;;5071446;28;20028;-74
2021/05/01 00:47:49;;;;;;;55.85;39.22;;;10.30;99.90;;;;;;5085361;22;20048;-75
2021/05/01 00:50:14;;;;;;;55.03;39.97;;;10.40;99.90;;;;;;5070275;28;20017;-74
2021/05/01 00:52:40;;;;;;;53.60;39.95;;;10.40;99.90;;;;;;5070466;28;20039;-74
2021/05/01 00:55:08;;;;;;;55.13;39.13;;;10.20;99.90;;;;;;5053611;28;20021;-75
2021/05/01 00:57:36;;;;;;;59.28;40.85;;;10.00;99.90;;;;;;5053332;28;20025;-75
2021/05/01 01:00:10;;;;;;;55.50;39.40;;;10.20;99.90;;;;;;5074881;28;20040;-75
2021/05/01 01:02:36;;;;;;;58.83;39.25;;;10.40;99.90;;;;;;5075243;28;20017;-75
2021/05/01 01:05:02;;;;;;;55.20;40.25;;;10.60;99.90;;;;;;5073909;28;20045;-75
2021/05/01 01:07:28;;;;;;;52.92;38.85;;;10.50;99.90;;;;;;5073743;28;20491;-75
2021/05/01 01:09:55;;;;;;;54.17;39.58;;;10.40;99.90;;;;;;5073883;28;20032;-75
2021/05/01 01:12:20;;;;;;;59.90;41.97;;;10.50;99.90;;;;;;5075155;28;20024;-75
2021/05/01 01:14:46;;;;;;;58.65;41.72;;;10.60;99.90;;;;;;5073876;28;20401;-75
2021/05/01 01:17:12;;;;;;;58.35;40.65;;;10.60;99.90;;;;;;5074750;28;20476;-75
2021/05/01 01:19:39;;;;;;;55.58;39.63;;;10.60;99.90;;;;;;5075462;28;20095;-75
2021/05/01 01:22:15;;;;;;;58.20;41.70;;;10.40;99.90;;;;;;5074978;28;20043;-75
2021/05/01 01:24:41;;;;;;;57.40;39.90;;;10.20;99.90;;;;;;5056988;28;20020;-75
2021/05/01 01:27:08;;;;;;;60.90;42.33;;;10.30;99.90;;;;;;5073596;28;20024;-75
2021/05/01 01:29:37;;;;;;;64.57;43.53;;;10.40;99.90;;;;;;5074944;28;20021;-75
2021/05/01 01:32:03;;;;;;;62.00;42.30;;;10.40;99.90;;;;;;5074713;28;20475;-75
2021/05/01 01:34:29;;;;;;;63.75;41.45;;;10.50;99.90;;;;;;5073503;28;20489;-75
2021/05/01 01:36:55;;;;;;;56.03;40.28;;;10.50;99.90;;;;;;5074511;28;20021;-75
2021/05/01 01:39:21;;;;;;;61.22;43.88;;;10.60;99.90;;;;;;5056643;28;20063;-75
2021/05/01 01:41:47;;;;;;;56.63;41.80;;;10.50;99.90;;;;;;5074614;28;20017;-75
2021/05/01 01:44:13;;;;;;;58.60;41.22;;;10.60;99.90;;;;;;5073263;28;20027;-75
2021/05/01 01:46:39;;;;;;;56.15;40.67;;;10.60;99.90;;;;;;5072865;28;20042;-75
2021/05/01 01:49:05;;;;;;;63.33;42.38;;;10.60;99.90;;;;;;5056512;28;20046;-75
2021/05/01 01:51:31;;;;;;;55.70;39.47;;;10.70;99.90;;;;;;5074443;28;20028;-75
2021/05/01 01:53:56;;;;;;;60.33;42.80;;;10.50;99.90;;;;;;5073137;28;20052;-75
2021/05/01 01:56:24;;;;;;;55.85;39.33;;;10.50;99.90;;;;;;5074266;28;20455;-75
2021/05/01 01:58:50;;;;;;;53.63;39.00;;;10.40;99.90;;;;;;5074306;28;20021;-75
2021/05/01 02:01:15;;;;;;;53.45;40.08;;;10.30;99.90;;;;;;5072811;28;20070;-75
2021/05/01 02:03:41;;;;;;;56.45;40.83;;;10.30;99.90;;;;;;5074173;28;20029;-75
2021/05/01 02:06:07;;;;;;;58.45;39.67;;;10.40;99.90;;;;;;5074053;28;20035;-75
2021/05/01 02:08:33;;;;;;;61.90;41.63;;;10.50;99.90;;;;;;5074188;28;20395;-75
2021/05/01 02:10:59;;;;;;;58.95;42.22;;;10.60;99.90;;;;;;5071759;28;20129;-75
2021/05/01 02:13:25;;;;;;;56.95;40.63;;;10.70;99.90;;;;;;5074027;28;20052;-75
2021/05/01 02:15:50;;;;;;;49.92;37.30;;;10.70;99.90;;;;;;5073739;28;20032;-75
2021/05/01 02:18:16;;;;;;;55.88;39.72;;;10.70;99.90;;;;;;5073932;28;20028;-75
2021/05/01 02:20:42;;;;;;;53.70;38.72;;;10.80;99.90;;;;;;5072635;28;20027;-75
2021/05/01 02:23:08;;;;;;;52.17;38.30;;;10.70;99.90;;;;;;5073813;28;20016;-75
2021/05/01 02:25:34;;;;;;;54.78;39.88;;;10.60;99.90;;;;;;5073864;28;20027;-75
2021/05/01 02:28:00;;;;;;;54.20;38.47;;;10.60;99.90;;;;;;5072413;28;20535;-75
2021/05/01 02:30:28;;;;;;;55.58;39.45;;;10.70;99.90;;;;;;5073517;28;20495;-75
2021/05/01 02:32:55;;;;;;;59.80;40.40;;;10.80;99.90;;;;;;5055907;28;20495;-75
2021/05/01 02:35:32;;;;;;;57.75;41.85;;;10.90;99.90;;;;;;5073593;28;20048;-75
2021/05/01 02:37:58;;;;;;;53.97;39.83;;;11.00;99.90;;;;;;5072269;28;20028;-75
2021/05/01 02:40:30;;;;;;;55.05;38.92;;;11.10;99.90;;;;;;5072327;28;20031;-75
2021/05/01 02:42:56;;;;;;;57.97;38.80;;;11.10;99.90;;;;;;5072210;28;20021;-75
2021/05/01 02:45:21;;;;;;;57.97;40.63;;;11.10;99.90;;;;;;5073751;28;20424;-75
2021/05/01 02:47:48;;;;;;;53.92;40.15;;;11.20;99.90;;;;;;5073238;28;20066;-75
2021/05/01 02:50:15;;;;;;;56.42;40.00;;;11.00;99.90;;;;;;5071993;28;20077;-75
2021/05/01 02:52:40;;;;;;;58.67;42.00;;;10.90;99.90;;;;;;5072017;28;20410;-75
2021/05/01 02:55:08;;;;;;;59.40;40.42;;;10.90;99.90;;;;;;5073137;28;20031;-75
2021/05/01 02:57:34;;;;;;;54.65;39.83;;;10.90;99.90;;;;;;5071741;28;20036;-75
2021/05/01 03:00:02;;;;;;;55.88;39.42;;;10.80;99.90;;;;;;5055086;28;20059;-75
2021/05/01 03:02:30;;;;;;;59.42;38.85;;;10.70;99.90;;;;;;5073030;28;20048;-75
2021/05/01 03:04:56;;;;;;;49.05;35.58;;;10.60;99.90;;;;;;5071733;28;20436;-75
2021/05/01 03:07:25;;;;;;;58.17;40.33;;;10.50;99.90;;;;;;5073143;28;20033;-75
2021/05/01 03:09:51;;;;;;;58.00;40.28;;;10.60;99.90;;;;;;5071529;28;20028;-75
2021/05/01 03:12:17;;;;;;;54.05;38.88;;;10.50;99.90;;;;;;5071673;28;20036;-75
2021/05/01 03:14:44;;;;;;;57.08;39.88;;;10.60;99.90;;;;;;5071461;28;20029;-74
2021/05/01 03:17:11;;;;;;;56.25;39.80;;;10.70;99.90;;;;;;5072587;28;20029;-75
2021/05/01 03:19:36;;;;;;;58.30;41.28;;;10.70;99.90;;;;;;5071659;28;20111;-75
2021/05/01 03:22:02;;;;;;;53.60;39.70;;;10.70;99.90;;;;;;5054516;28;20115;-75
2021/05/01 03:24:30;;;;;;;57.30;40.17;;;10.90;99.90;;;;;;5072564;28;20413;-75
2021/05/01 03:26:55;;;;;;;55.25;40.95;;;10.80;99.90;;;;;;5071098;28;20029;-75
2021/05/01 03:29:21;;;;;;;60.67;40.97;;;10.70;99.90;;;;;;5071347;28;20039;-75
2021/05/01 03:31:47;;;;;;;55.92;39.38;;;10.40;99.90;;;;;;5072527;28;20031;-75
2021/05/01 03:34:12;;;;;;;57.08;41.50;;;10.30;99.90;;;;;;5072488;28;20484;-75
2021/05/01 03:36:38;;;;;;;56.65;40.58;;;10.30;99.90;;;;;;5054588;28;20063;-75
2021/05/01 03:39:04;;;;;;;58.38;41.97;;;10.30;99.90;;;;;;5071002;28;20032;-75
2021/05/01 03:41:30;;;;;;;62.50;44.00;;;10.30;99.90;;;;;;5072305;28;20020;-75
2021/05/01 03:43:56;;;;;;;58.97;42.67;;;10.20;99.90;;;;;;5071073;28;20464;-75
2021/05/01 03:46:21;;;;;;;61.50;42.53;;;10.20;99.90;;;;;;5072016;28;20029;-74
2021/05/01 03:48:47;;;;;;;65.55;42.65;;;10.00;99.90;;;;;;5071146;28;20029;-75
2021/05/01 03:51:13;;;;;;;61.08;43.85;;;9.90;99.90;;;;;;5070862;28;20025;-75
2021/05/01 03:53:39;;;;;;;64.95;44.67;;;10.20;99.90;;;;;;5070747;28;20120;-75
2021/05/01 03:56:05;;;;;;;62.55;42.70;;;10.20;99.90;;;;;;5070783;28;20032;-75
2021/05/01 03:58:30;;;;;;;63.08;44.08;;;10.00;99.90;;;;;;5072045;28;20024;-75
2021/05/01 04:00:56;;;;;;;65.80;43.25;;;10.20;99.90;;;;;;5072214;28;20480;-75
2021/05/01 04:03:22;;;;;;;59.33;43.08;;;10.40;99.90;;;;;;5072079;28;20384;-75
2021/05/01 04:05:48;;;;;;;65.75;44.38;;;10.50;99.90;;;;;;5070613;28;20021;-74
2021/05/01 04:08:13;;;;;;;64.68;44.60;;;10.40;99.90;;;;;;5072283;28;20059;-75
2021/05/01 04:10:39;;;;;;;58.17;42.42;;;10.40;99.90;;;;;;5072012;28;20028;-75
2021/05/01 04:13:05;;;;;;;63.47;43.00;;;10.50;99.90;;;;;;5070787;28;20033;-75
2021/05/01 04:15:31;;;;;;;62.00;42.95;;;10.40;99.90;;;;;;5072022;28;20052;-75
2021/05/01 04:17:56;;;;;;;60.90;42.08;;;10.30;99.90;;;;;;5070569;28;20395;-75
2021/05/01 04:20:22;;;;;;;62.60;42.00;;;10.30;99.90;;;;;;5071893;28;20021;-75
2021/05/01 04:22:48;;;;;;;57.03;40.08;;;10.30;99.90;;;;;;5070597;28;20505;-75
2021/05/01 04:25:14;;;;;;;56.17;39.55;;;10.30;99.90;;;;;;5071861;28;20044;-75
2021/05/01 04:27:40;;;;;;;56.72;40.13;;;10.40;99.90;;;;;;5071673;28;20025;-75
2021/05/01 04:30:08;;;;;;;58.33;40.75;;;10.60;99.90;;;;;;5071825;28;20106;-75
2021/05/01 04:32:34;;;;;;;56.17;39.03;;;10.40;99.90;;;;;;5054046;28;20052;-75
2021/05/01 04:35:00;;;;;;;54.17;38.70;;;10.50;99.90;;;;;;5074171;28;20113;-75
2021/05/01 04:37:26;;;;;;;59.35;39.20;;;10.60;99.90;;;;;;5075569;28;20024;-75
2021/05/01 04:39:52;;;;;;;56.22;38.53;;;10.40;99.90;;;;;;5057888;28;20028;-75
2021/05/01 04:42:17;;;;;;;51.13;37.83;;;10.50;99.90;;;;;;5057739;28;20476;-75
2021/05/01 04:44:43;;;;;;;57.10;40.00;;;10.60;99.90;;;;;;5075890;28;20025;-74
2021/05/01 04:47:10;;;;;;;50.95;36.92;;;10.70;99.90;;;;;;5075676;28;20149;-75
2021/05/01 04:49:40;;;;;;;57.15;39.95;;;10.70;99.90;;;;;;5075718;28;20044;-74
2021/05/01 04:52:06;;;;;;;56.20;39.20;;;10.70;99.90;;;;;;5074323;28;20021;-74
2021/05/01 04:54:32;;;;;;;55.17;38.08;;;10.60;99.90;;;;;;5057675;28;20094;-75
2021/05/01 04:56:57;;;;;;;54.00;39.30;;;10.50;99.90;;;;;;5074016;28;20021;-74
2021/05/01 04:59:23;;;;;;;54.47;39.42;;;10.40;99.90;;;;;;5074377;28;20028;-75
2021/05/01 05:01:49;;;;;;;57.60;38.88;;;10.40;99.90;;;;;;5075500;28;20024;-75
2021/05/01 05:04:14;;;;;;;55.78;38.55;;;10.40;99.90;;;;;;5074101;28;20052;-75
2021/05/01 05:06:40;;;;;;;54.60;39.45;;;10.50;99.90;;;;;;5073690;28;20429;-75
2021/05/01 05:09:06;;;;;;;55.13;38.50;;;10.60;99.90;;;;;;5074342;28;20035;-75
2021/05/01 05:11:32;;;;;;;60.20;42.00;;;10.40;99.90;;;;;;5073956;28;20036;-75
2021/05/01 05:13:59;;;;;;;58.45;41.47;;;10.40;99.90;;;;;;5075150;28;20154;-75
2021/05/01 05:16:25;;;;;;;62.85;42.22;;;10.30;99.90;;;;;;5073706;28;20387;-75
2021/05/01 05:18:51;;;;;;;56.63;40.80;;;10.30;99.90;;;;;;5075088;28;20025;-75
2021/05/01 05:21:17;;;;;;;63.88;43.15;;;10.10;99.90;;;;;;5056998;28;20024;-75
2021/05/01 05:23:42;;;;;;;61.47;43.55;;;10.20;99.90;;;;;;5073657;28;20027;-75
2021/05/01 05:26:08;;;;;;;61.70;41.33;;;10.10;99.90;;;;;;5073562;28;20027;-75
2021/05/01 05:28:34;;;;;;;59.47;41.40;;;10.00;99.90;;;;;;5056998;28;20066;-75
2021/05/01 05:30:59;;;;;;;57.38;40.92;;;10.00;99.90;;;;;;5073571;28;20434;-75
2021/05/01 05:33:25;;;;;;;56.35;40.22;;;10.20;99.90;;;;;;5073527;28;20330;-75
2021/05/01 05:35:51;;;;;;;59.25;40.42;;;10.20;99.90;;;;;;5073324;28;20024;-75
2021/05/01 05:38:17;;;;;;;57.47;39.97;;;10.10;99.90;;;;;;5074655;28;20040;-75
2021/05/01 05:40:43;;;;;;;62.22;42.05;;;10.20;99.90;;;;;;5074622;28;20020;-75
2021/05/01 05:43:10;;;;;;;58.65;41.35;;;10.10;99.90;;;;;;5073301;28;20111;-75
2021/05/01 05:45:36;;;;;;;59.45;40.65;;;10.20;99.90;;;;;;5074208;28;20103;-75
2021/05/01 05:48:03;;;;;;;59.40;41.90;;;10.10;99.90;;;;;;5074368;28;20040;-75
2021/05/01 05:50:29;;;;;;;65.65;44.05;;;10.10;99.90;;;;;;5073230;28;20381;-75
2021/05/01 05:52:55;;;;;;;65.65;42.88;;;10.10;99.90;;;;;;5074459;28;20036;-75
2021/05/01 05:55:21;;;;;;;63.33;43.15;;;10.10;99.90;;;;;;5074303;28;20029;-74
2021/05/01 05:57:54;;;;;;;57.10;40.85;;;10.00;99.90;;;;;;5072881;28;20028;-75
2021/05/01 06:00:22;;;;;;;66.85;43.38;;;10.00;99.90;;;;;;5073084;28;20021;-75
2021/05/01 06:02:50;;;;;;;63.67;40.95;;;10.00;99.90;;;;;;5056141;28;20499;-75
2021/05/01 06:05:24;;;;;;;62.05;43.83;;;10.00;99.90;;;;;;5072955;28;20025;-74
2021/05/01 06:07:57;;;;;;;65.38;43.25;;;10.00;99.90;;;;;;5072865;28;20029;-75
2021/05/01 06:10:24;;;;;;;60.08;42.75;;;10.00;99.90;;;;;;5072753;28;20168;-74
2021/05/01 06:12:51;;;;;;;63.70;43.40;;;10.10;99.90;;;;;;5074213;28;20021;-75
2021/05/01 06:15:18;;;;;;;64.30;42.70;;;10.20;99.90;;;;;;5073864;28;20033;-75
2021/05/01 06:17:45;;;;;;;60.90;41.83;;;10.30;99.90;;;;;;5072532;28;20073;-75
2021/05/01 06:20:13;;;;;;;59.28;40.50;;;10.30;99.90;;;;;;5074189;28;20024;-75
2021/05/01 06:22:40;;;;;;;60.47;42.33;;;10.30;99.90;;;;;;5072654;28;20535;-75
2021/05/01 06:25:11;;;;;;;57.63;35.83;;;10.20;99.90;;;;;;5077504;28;20030;-75
2021/05/01 06:27:37;;;;;;;56.45;39.80;;;10.00;99.90;;;;;;5087540;28;20085;-75
2021/05/01 06:30:06;;;;;;;54.20;39.60;;;10.00;99.90;;;;;;5075122;28;20024;-75
2021/05/01 06:32:32;;;;;;;51.58;37.45;;;10.00;99.90;;;;;;5075064;28;20059;-75
2021/05/01 06:34:58;;;;;;;49.85;34.95;;;10.10;99.90;;;;;;5094249;28;20073;-75
2021/05/01 06:37:26;;;;;;;49.92;35.58;;;10.20;99.90;;;;;;5092428;28;20032;-75
2021/05/01 06:39:55;;;;;;;49.17;35.58;;;10.20;99.90;;;;;;5093376;28;20028;-75
2021/05/01 06:42:29;;;;;;;49.58;36.38;;;10.30;99.90;;;;;;5078983;28;20028;-75
2021/05/01 06:45:12;;;;;;;52.47;34.28;;;10.40;99.90;;;;;;5055495;28;20050;-75
2021/05/01 06:47:47;;;;;;;49.17;35.58;;;10.50;99.90;;;;;;5072059;28;20041;-75
2021/05/01 06:50:14;;;;;;;57.85;36.90;;;10.60;99.90;;;;;;5073231;28;20480;-75
2021/05/01 06:52:49;;;;;;;54.78;38.78;;;10.70;99.90;;;;;;5071715;28;20496;-75
2021/05/01 06:55:20;;;;;;;56.70;36.33;;;10.60;99.90;;;;;;5073118;28;20434;-75
2021/05/01 06:57:51;;;;;;;48.80;36.13;;;10.70;99.90;;;;;;5054257;28;20025;-75
2021/05/01 07:00:19;;;;;;;53.45;35.13;;;10.70;99.90;;;;;;5055915;28;20021;-74
2021/05/01 07:02:52;;;;;;;49.35;35.88;;;10.70;99.90;;;;;;5071603;28;20024;-74
2021/05/01 07:05:21;;;;;;;54.33;38.65;;;10.50;99.90;;;;;;5080421;22;20492;-72
2021/05/01 07:07:47;;;;;;;51.80;36.92;;;10.50;99.90;;;;;;5051823;28;20025;-72
2021/05/01 07:10:15;;;;;;;55.53;36.80;;;10.60;99.90;;;;;;5050507;28;20480;-72
2021/05/01 07:12:44;;;;;;;52.15;37.00;;;10.70;99.90;;;;;;5052152;28;20067;-72
2021/05/01 07:15:12;;;;;;;50.90;36.42;;;10.90;99.90;;;;;;5052892;28;20466;-72
2021/05/01 07:17:39;;;;;;;46.15;33.08;;;11.00;99.90;;;;;;5052811;28;20373;-72
2021/05/01 07:20:07;;;;;;;43.15;32.83;;;11.00;99.90;;;;;;5052812;28;20120;-72
2021/05/01 07:22:34;;;;;;;44.05;31.30;;;10.90;99.90;;;;;;5052806;28;20053;-72
2021/05/01 07:25:02;;;;;;;43.10;32.75;;;11.10;99.90;;;;;;5051435;28;20063;-72
2021/05/01 07:28:02;;;;;;;48.72;35.13;;;11.10;99.90;;;;;;5052660;28;20021;-71
2021/05/01 07:30:30;;;;;;;42.47;30.95;;;11.10;99.90;;;;;;5051358;28;20032;-72
2021/05/01 07:33:08;;;;;;;47.40;30.95;;;11.20;99.90;;;;;;5052604;28;20020;-72
2021/05/01 07:35:36;;;;;;;44.50;30.90;;;11.20;99.90;;;;;;5051177;28;20420;-72
2021/05/01 07:38:07;;;;;;;44.42;29.35;;;11.10;99.90;;;;;;5050982;28;20028;-72
2021/05/01 07:40:33;;;;;;;37.90;28.02;;;11.20;99.90;;;;;;5034614;28;20411;-72
2021/05/01 07:43:00;;;;;;;41.40;30.60;;;11.20;99.90;;;;;;5052341;28;20017;-72
2021/05/01 07:45:27;;;;;;;39.78;29.95;;;11.10;99.90;;;;;;5051099;28;20492;-72
2021/05/01 07:47:56;;;;;;;39.63;29.20;;;11.00;99.90;;;;;;5052189;28;20036;-72
2021/05/01 07:50:26;;;;;;;42.35;29.58;;;11.00;99.90;;;;;;5052249;28;20021;-72
2021/05/01 07:52:53;;;;;;;46.85;31.60;;;10.90;99.90;;;;;;5052258;28;20476;-72
2021/05/01 07:55:20;;;;;;;40.20;29.13;;;10.70;99.90;;;;;;5050961;28;20025;-72
2021/05/01 07:57:47;;;;;;;41.67;27.73;;;10.80;99.90;;;;;;5052066;28;20032;-72
2021/05/01 08:00:15;;;;;;;42.53;28.75;;;11.00;99.90;;;;;;5052152;28;20032;-72
2021/05/01 08:02:41;;;;;;;47.20;29.02;;;10.90;99.90;;;;;;5050895;28;20385;-72
2021/05/01 08:05:08;;;;;;;36.42;27.25;;;11.10;99.90;;;;;;5051923;28;20383;-72
2021/05/01 08:07:34;;;;;;;41.80;28.42;;;11.30;99.90;;;;;;5050693;28;20484;-74
2021/05/01 08:10:00;;;;;;;37.00;27.15;;;11.20;99.90;;;;;;5051712;28;20028;-72
2021/05/01 08:12:26;;;;;;;34.80;25.98;;;11.30;99.90;;;;;;5050727;28;20029;-71
2021/05/01 08:14:52;;;;;;;41.92;24.52;;;11.20;99.90;;;;;;5051997;28;20039;-72
2021/05/01 08:17:18;;;;;;;36.60;23.73;;;11.10;99.90;;;;;;5051794;28;20024;-72
2021/05/01 08:19:43;;;;;;;31.23;21.55;;;11.00;99.90;;;;;;5051929;28;20032;-72
2021/05/01 08:22:09;;;;;;;31.83;23.27;;;10.90;99.90;;;;;;5051964;28;20096;-72
2021/05/01 08:24:35;;;;;;;30.40;22.33;;;10.90;99.90;;;;;;5051897;28;20503;-73
2021/05/01 08:27:01;;;;;;;29.23;22.52;;;10.80;99.90;;;;;;5051849;28;20021;-73
2021/05/01 08:29:26;;;;;;;30.77;21.67;;;10.90;99.90;;;;;;5033810;28;20021;-72
2021/05/01 08:31:53;;;;;;;29.90;21.20;;;11.00;99.90;;;;;;5051879;28;20037;-72
2021/05/01 08:34:19;;;;;;;26.38;20.17;;;11.20;99.90;;;;;;5051796;28;20029;-73
2021/05/01 08:36:44;;;;;;;21.73;16.77;;;11.10;99.90;;;;;;5051682;28;20044;-72
2021/05/01 08:39:10;;;;;;;25.25;17.55;;;11.10;99.90;;;;;;5050255;28;20032;-71
2021/05/01 08:41:36;;;;;;;23.52;17.58;;;11.30;99.90;;;;;;5050815;28;20515;-73
2021/05/01 08:44:08;;;;;;;23.58;16.73;;;11.20;99.90;;;;;;5034136;28;20473;-73
2021/05/01 08:46:38;;;;;;;20.85;15.35;;;11.10;99.90;;;;;;5050630;28;20036;-72
2021/05/01 08:49:04;;;;;;;21.95;16.52;;;11.10;99.90;;;;;;5050464;28;20120;-72
2021/05/01 08:51:30;;;;;;;25.58;15.40;;;11.20;99.90;;;;;;5051586;28;20048;-72
2021/05/01 08:53:56;;;;;;;21.40;15.85;;;11.20;99.90;;;;;;5050237;28;20119;-73
2021/05/01 08:56:22;;;;;;;23.75;15.57;;;11.20;99.90;;;;;;5050302;28;20112;-73
2021/05/01 08:58:48;;;;;;;21.98;15.07;;;11.10;99.90;;;;;;5050213;28;20021;-73
2021/05/01 09:01:15;;;;;;;20.80;15.07;;;11.10;99.90;;;;;;5051584;28;20079;-73
2021/05/01 09:03:43;;;;;;;19.42;14.80;;;11.10;99.90;;;;;;5050237;28;20047;-73
2021/05/01 09:06:09;;;;;;;19.95;15.23;;;11.30;99.90;;;;;;5049861;28;20087;-73
2021/05/01 09:08:40;;;;;;;20.67;14.98;;;11.40;99.90;;;;;;5050291;28;20029;-73
2021/05/01 09:11:07;;;;;;;24.45;15.65;;;11.60;99.90;;;;;;5071458;28;20025;-73
2021/05/01 09:13:33;;;;;;;22.10;14.80;;;11.70;99.90;;;;;;5071349;28;20041;-73
2021/05/01 09:16:03;;;;;;;22.95;14.80;;;11.80;99.90;;;;;;5071373;28;20073;-73
2021/05/01 09:18:43;;;;;;;23.83;14.50;;;11.70;99.90;;;;;;5071375;28;20025;-73
2021/05/01 09:21:15;;;;;;;20.95;12.48;;;11.50;99.90;;;;;;5073578;28;20025;-72
2021/05/01 09:23:41;;;;;;;;;;;11.50;99.90;;;;;;5057571;28;20064;-72
2021/05/01 09:26:07;;;;;;;18.23;13.88;;;11.50;99.90;;;;;;5074940;28;20395;-73
2021/05/01 09:28:42;;;;;;;20.98;12.82;;;11.50;99.90;;;;;;5074285;28;20031;-73
2021/05/01 09:31:09;;;;;;;16.75;12.85;;;11.60;99.90;;;;;;5074957;28;20495;-73
2021/05/01 09:33:36;;;;;;;19.10;13.30;;;11.70;99.90;;;;;;5074913;28;20108;-73
2021/05/01 09:36:08;;;;;;;21.00;12.65;;;11.80;99.90;;;;;;5074669;28;20032;-73
2021/05/01 09:38:41;;;;;;;16.75;13.05;;;12.00;99.90;;;;;;5074444;28;20042;-73
2021/05/01 09:41:08;;;;;;;22.27;14.38;;;12.20;99.90;;;;;;5074772;28;20100;-73
2021/05/01 09:43:34;;;;;;;22.55;13.15;;;12.30;99.90;;;;;;5074602;28;20021;-73
2021/05/01 09:46:13;;;;;;;17.63;13.20;;;12.20;99.90;;;;;;5073348;28;20526;-73
2021/05/01 09:48:39;;;;;;;18.67;12.80;;;12.30;99.90;;;;;;5074625;28;20391;-73
2021/05/01 09:51:05;;;;;;;18.92;13.73;;;12.20;99.90;;;;;;5074467;28;20535;-74
2021/05/01 09:53:31;;;;;;;16.42;13.40;;;12.20;99.90;;;;;;5074302;28;20104;-73
2021/05/01 09:55:58;;;;;;;14.75;12.50;;;12.20;99.90;;;;;;5073122;28;20028;-73
2021/05/01 09:58:31;;;;;;;16.25;13.02;;;12.30;99.90;;;;;;5072931;28;20035;-73
2021/05/01 10:01:12;;;;;;;22.77;16.42;;;12.20;99.90;;;;;;5056220;28;20028;-73
2021/05/01 10:03:38;;;;;;;23.70;14.50;;;12.30;99.90;;;;;;5073154;28;20113;-73
2021/05/01 10:06:06;;;;;;;18.70;14.00;;;12.20;99.90;;;;;;5072761;28;20074;-73
2021/05/01 10:08:33;;;;;;;24.23;15.43;;;12.20;99.90;;;;;;5074280;28;20024;-73
2021/05/01 10:11:14;;;;;;;17.77;13.50;;;12.30;99.90;;;;;;5073147;28;20027;-73
2021/05/01 10:13:54;;;;;;;20.73;13.93;;;12.30;99.90;;;;;;5064483;28;20021;-73
2021/05/01 10:16:21;;;;;;;15.85;12.35;;;12.20;99.90;;;;;;5055081;28;20027;-73
2021/05/01 10:19:05;;;;;;;19.65;14.20;;;12.20;99.90;;;;;;5054050;28;20431;-73
2021/05/01 10:21:33;;;;;;;16.58;12.63;;;12.10;99.90;;;;;;5052600;28;20024;-73
2021/05/01 10:23:58;;;;;;;17.30;12.15;;;12.00;99.90;;;;;;5053905;28;20023;-72
2021/05/01 10:26:25;;;;;;;16.15;12.32;;;12.20;99.90;;;;;;5052471;28;20025;-73
2021/05/01 10:28:56;;;;;;;23.27;12.93;;;12.40;99.90;;;;;;5053743;28;20029;-73
2021/05/01 10:31:23;;;;;;;17.33;12.50;;;12.40;99.90;;;;;;5051543;28;20477;-72
2021/05/01 10:33:50;;;;;;;24.00;13.57;;;12.40;99.90;;;;;;5052611;28;20025;-74
2021/05/01 10:36:32;;;;;;;16.52;12.23;;;12.40;99.90;;;;;;5053979;28;20496;-74
2021/05/01 10:39:09;;;;;;;20.80;13.10;;;12.40;99.90;;;;;;5052837;28;20028;-73
2021/05/01 10:41:36;;;;;;;15.68;12.13;;;12.30;99.90;;;;;;5053490;28;20032;-73
2021/05/01 10:44:04;;;;;;;16.58;11.95;;;12.20;99.90;;;;;;5053837;28;20100;-74
2021/05/01 10:46:32;;;;;;;18.45;12.38;;;12.40;99.90;;;;;;5053975;28;20040;-74
2021/05/01 10:49:05;;;;;;;17.10;11.48;;;12.40;99.90;;;;;;5053898;28;20024;-73
2021/05/01 10:51:42;;;;;;;16.92;12.85;;;12.40;99.90;;;;;;5053868;28;20017;-74
2021/05/01 10:54:26;;;;;;;17.38;12.85;;;12.30;99.90;;;;;;5053666;28;20031;-73
2021/05/01 10:56:53;;;;;;;18.33;13.43;;;12.30;99.90;;;;;;5052477;28;20480;-73
2021/05/01 10:59:27;;;;;;;18.33;13.45;;;12.10;99.90;;;;;;5053686;28;20103;-74
2021/05/01 11:01:55;;;;;;;18.80;13.73;;;12.20;99.90;;;;;;5052450;28;20057;-73
2021/05/01 11:04:28;;;;;;;21.55;13.90;;;12.30;99.90;;;;;;5052385;28;20021;-73
2021/05/01 11:07:08;;;;;;;17.27;12.60;;;12.50;99.90;;;;;;5052141;28;20041;-73
2021/05/01 11:09:41;;;;;;;23.27;13.23;;;12.60;99.90;;;;;;5053470;28;20025;-74
2021/05/01 11:12:09;;;;;;;19.77;12.77;;;12.50;99.90;;;;;;5053423;28;20029;-73
2021/05/01 11:14:43;;;;;;;19.95;12.60;;;12.50;99.90;;;;;;5053403;28;20024;-73
2021/05/01 11:17:12;;;;;;;16.95;12.38;;;12.40;99.90;;;;;;5052266;28;20075;-73
2021/05/01 11:19:43;;;;;;;22.35;14.27;;;12.50;99.90;;;;;;5051736;28;20120;-73
2021/05/01 11:22:20;;;;;;;16.40;11.85;;;12.40;99.90;;;;;;5053291;28;20527;-74
2021/05/01 11:24:46;;;;;;;18.75;12.88;;;12.40;99.90;;;;;;5051872;28;20032;-74
2021/05/01 11:27:13;;;;;;;16.23;12.30;;;12.40;99.90;;;;;;5053166;28;20025;-74
2021/05/01 11:29:40;;;;;;;13.63;11.45;;;12.40;99.90;;;;;;5053173;28;20507;-73
2021/05/01 11:32:07;;;;;;;14.55;11.65;;;12.60;99.90;;;;;;5053133;28;20082;-74
2021/05/01 11:34:35;;;;;;;15.32;12.10;;;12.60;99.90;;;;;;5053076;28;20040;-74
2021/05/01 11:37:04;;;;;;;19.60;12.20;;;12.70;99.90;;;;;;5051756;28;20032;-74
2021/05/01 11:39:30;;;;;;;15.38;12.02;;;12.70;99.90;;;;;;5052895;28;20388;-74
2021/05/01 11:41:57;;;;;;;15.18;11.63;;;12.70;99.90;;;;;;5051502;28;20029;-74
2021/05/01 11:44:25;;;;;;;15.90;12.70;;;12.70;99.90;;;;;;5051695;28;20055;-74
2021/05/01 11:47:04;;;;;;;19.48;12.30;;;12.80;99.90;;;;;;5051682;28;20543;-74
2021/05/01 11:49:30;;;;;;;14.13;11.60;;;12.80;99.90;;;;;;5052810;28;20071;-74
2021/05/01 11:52:24;;;;;;;16.23;12.80;;;12.70;99.90;;;;;;5052705;28;20416;-74
2021/05/01 11:55:01;;;;;;;17.45;12.43;;;12.70;99.90;;;;;;5052825;28;20546;-74
2021/05/01 11:57:32;;;;;;;21.80;12.18;;;12.60;99.90;;;;;;5052590;28;20480;-74
2021/05/01 12:00:00;;;;;;;21.75;12.00;;;12.60;99.90;;;;;;5052658;28;20439;-74
2021/05/01 12:02:37;;;;;;;14.98;11.25;;;12.60;99.90;;;;;;5051524;28;20048;-74
2021/05/01 12:05:13;;;;;;;15.35;12.10;;;12.60;99.90;;;;;;5052562;28;20111;-74
2021/05/01 12:07:52;;;;;;;16.15;12.77;;;12.60;99.90;;;;;;5052561;28;20017;-74
2021/05/01 12:10:20;;;;;;;15.77;12.57;;;12.50;99.90;;;;;;5052334;28;20120;-74
2021/05/01 12:13:03;;;;;;;22.90;11.75;;;12.20;99.90;;;;;;5052129;28;20074;-73
2021/05/01 12:15:35;;;;;;;18.58;12.52;;;12.20;99.90;;;;;;5052401;28;20017;-74
2021/05/01 12:18:02;;;;;;;18.60;13.35;;;12.40;99.90;;;;;;5050760;28;20033;-73
2021/05/01 12:20:29;;;;;;;16.85;13.45;;;12.40;99.90;;;;;;5052398;28;20033;-74
2021/05/01 12:23:08;;;;;;;17.20;13.95;;;12.40;99.90;;;;;;5052296;28;20388;-74
2021/05/01 12:25:37;;;;;;;19.75;14.27;;;12.40;99.90;;;;;;5050997;28;20017;-74
2021/05/01 12:28:10;;;;;;;19.35;14.40;;;12.50;99.90;;;;;;5052133;28;20086;-73
2021/05/01 12:30:36;;;;;;;22.05;16.13;;;12.60;99.90;;;;;;5052315;28;20033;-74
2021/05/01 12:33:29;;;;;;;25.05;16.55;;;12.60;99.90;;;;;;5052561;28;20354;-73